Time;durP1;ratioP1;P1;durP2;ratioP2;P2;SDS_P1;SDS_P2;PMS_P1;PMS_P2;Temp;Humidity;BMP_temperature;BMP_pressure;BME280_temperature;BME280_humidity;BME280_pressure;Samples;Min_cycle;Max_cycle;Signal;HPM_P1;HPM_P2
2022/11/26 00:00:47;;;;;;;9.20;7.80;;;;;;;-143.84;71.66;45271.88;5111815;28;20443;-79
2022/11/26 00:03:14;;;;;;;12.27;8.10;;;;;;;-143.84;71.37;45235.69;5111909;28;20894;-79
2022/11/26 00:05:45;;;;;;;13.10;8.97;;;;;;;-143.84;71.17;45249.00;5111868;28;20836;-79
2022/11/26 00:08:21;;;;;;;8.23;7.03;;;;;;;-143.84;70.53;45252.81;5111267;28;20447;-79
2022/11/26 00:10:51;;;;;;;10.13;7.10;;;;;;;-143.84;70.68;45229.97;5111433;28;20435;-79
2022/11/26 00:13:20;;;;;;;14.33;9.03;;;;;;;-143.84;70.84;45262.34;5111432;28;20503;-79
2022/11/26 00:15:49;;;;;;;15.30;9.27;;;;;;;-143.84;71.11;45277.56;5111520;28;20442;-79
2022/11/26 00:18:16;;;;;;;10.97;9.10;;;;;;;-143.84;71.33;45239.50;5111344;28;20474;-79
2022/11/26 00:20:45;;;;;;;11.60;8.57;;;;;;;-143.84;71.23;45228.06;5111893;28;20855;-79
2022/11/26 00:23:20;;;;;;;14.20;8.90;;;;;;;-143.84;71.21;45235.69;5111595;28;20451;-79
2022/11/26 00:25:50;;;;;;;11.33;8.77;;;;;;;-143.84;71.01;45266.16;5111035;28;20569;-79
2022/11/26 00:28:27;;;;;;;10.57;8.33;;;;;;;-143.84;71.39;45249.00;5111712;28;20435;-79
2022/11/26 00:30:56;;;;;;;10.77;8.73;;;;;;;-143.84;70.78;45262.34;5111656;28;20496;-79
2022/11/26 00:33:24;;;;;;;15.00;9.80;;;;;;;-143.84;70.67;45245.19;5111501;28;20439;-79
2022/11/26 00:35:56;;;;;;;11.00;8.17;;;;;;;-143.84;70.07;45247.09;5111184;28;20495;-79
2022/11/26 00:38:24;;;;;;;9.57;7.80;;;;;;;-143.84;69.93;45235.69;5111474;28;20479;-79
2022/11/26 00:40:52;;;;;;;11.80;8.10;;;;;;;-143.84;69.46;45243.31;5111174;28;20443;-79
2022/11/26 00:43:19;;;;;;;9.07;6.87;;;;;;;-143.84;68.81;45260.44;5111332;28;20439;-79
2022/11/26 00:45:49;;;;;;;10.83;7.50;;;;;;;-143.84;68.43;45250.91;5111110;28;20438;-79
2022/11/26 00:48:16;;;;;;;10.63;7.33;;;;;;;-143.84;67.89;45249.00;5111388;28;20549;-79
2022/11/26 00:50:47;;;;;;;10.30;8.00;;;;;;;-143.84;68.05;45245.19;5111253;28;20925;-79
2022/11/26 00:53:20;;;;;;;10.43;7.77;;;;;;;-143.84;68.26;45235.69;5111313;28;20445;-79
2022/11/26 00:55:49;;;;;;;11.30;7.50;;;;;;;-143.84;68.29;45254.72;5111232;28;20446;-79
2022/11/26 00:58:24;;;;;;;10.27;8.53;;;;;;;-143.84;68.17;45233.78;5110765;28;20894;-79
2022/11/26 01:00:52;;;;;;;8.70;7.43;;;;;;;-143.84;68.67;45262.34;5111114;28;20449;-79
2022/11/26 01:03:19;;;;;;;13.03;9.63;;;;;;;-143.84;69.07;45241.41;5111270;28;21094;-79
2022/11/26 01:05:50;;;;;;;11.87;9.20;;;;;;;-143.84;68.89;45258.53;5111089;28;20467;-79
2022/11/26 01:08:27;;;;;;;9.37;7.87;;;;;;;-143.84;69.20;45258.53;5111209;28;20443;-79
2022/11/26 01:10:54;;;;;;;10.73;8.77;;;;;;;-143.84;69.06;45243.31;5111147;28;20442;-79
2022/11/26 01:13:22;;;;;;;10.20;8.00;;;;;;;-143.84;69.11;45249.00;5111013;28;20438;-79
2022/11/26 01:15:49;;;;;;;10.07;8.00;;;;;;;-143.84;68.68;45239.50;5110843;28;20446;-79
2022/11/26 01:18:20;;;;;;;8.90;7.43;;;;;;;-143.84;68.59;45250.91;5111120;28;20478;-79
2022/11/26 01:20:47;;;;;;;12.93;9.17;;;;;;;-143.84;68.80;45241.41;5111269;28;20439;-79
2022/11/26 01:23:17;;;;;;;11.50;8.90;;;;;;;-143.84;68.65;45249.00;5113314;28;20492;-79
2022/11/26 01:25:47;;;;;;;9.83;7.87;;;;;;;-143.84;69.14;45224.25;5114485;28;20479;-80
2022/11/26 01:28:16;;;;;;;14.37;8.80;;;;;;;-143.84;68.62;45239.50;5114732;28;20443;-80
2022/11/26 01:30:43;;;;;;;12.10;8.43;;;;;;;-143.84;68.81;45262.34;5114518;28;20438;-79
2022/11/26 01:33:11;;;;;;;12.77;9.70;;;;;;;-143.84;68.61;45279.47;5114310;28;20442;-79
2022/11/26 01:35:38;;;;;;;11.40;8.50;;;;;;;-143.84;68.17;45250.91;5114489;28;20436;-78
2022/11/26 01:38:05;;;;;;;9.83;8.20;;;;;;;-143.84;68.70;45266.16;5096350;28;20467;-79
2022/11/26 01:41:05;;;;;;;12.67;8.73;;;;;;;-143.84;68.40;45237.59;5114397;28;20439;-79
2022/11/26 01:43:37;;;;;;;9.97;8.10;;;;;;;-143.84;68.62;45262.34;5114283;28;20440;-78
2022/11/26 01:46:14;;;;;;;12.67;9.03;;;;;;;-143.84;68.39;45226.16;5114370;28;20435;-78
2022/11/26 01:48:41;;;;;;;11.67;8.87;;;;;;;-143.84;68.64;45247.09;5113827;28;20438;-79
2022/11/26 01:51:10;;;;;;;10.90;8.20;;;;;;;-143.84;68.71;45262.34;5114134;28;20427;-79
2022/11/26 01:53:45;;;;;;;11.10;8.60;;;;;;;-143.84;68.53;45249.00;5114344;28;20792;-78
2022/11/26 01:56:19;;;;;;;11.30;8.70;;;;;;;-143.84;67.96;45243.31;5113878;28;20503;-79
2022/11/26 01:58:51;;;;;;;10.17;8.50;;;;;;;-143.84;68.10;45277.56;5113792;28;20521;-79
2022/11/26 02:01:20;;;;;;;11.03;8.40;;;;;;;-143.84;68.23;45245.19;5113893;28;20434;-79
2022/11/26 02:03:55;;;;;;;12.53;8.80;;;;;;;-143.84;68.59;45290.91;5113838;28;20439;-79
2022/11/26 02:06:26;;;;;;;10.33;7.93;;;;;;;-143.84;68.84;45241.41;5114160;28;20481;-79
2022/11/26 02:08:55;;;;;;;12.57;7.90;;;;;;;-143.84;68.80;45247.09;5113702;28;20505;-78
2022/11/26 02:11:25;;;;;;;12.13;9.07;;;;;;;-143.84;68.83;45249.00;5113738;28;20943;-79
2022/11/26 02:14:00;;;;;;;12.23;9.13;;;;;;;-143.84;69.18;45277.56;5112115;28;20446;-79
2022/11/26 02:16:45;;;;;;;12.27;8.53;;;;;;;-143.84;68.44;45260.44;5112481;28;20426;-79
2022/11/26 02:19:36;;;;;;;11.97;8.87;;;;;;;-143.84;69.30;45245.19;5112733;28;20860;-79
2022/11/26 02:22:13;;;;;;;11.17;7.50;;;;;;;-143.84;69.32;45252.81;5095341;28;20980;-79
2022/11/26 02:24:50;;;;;;;13.00;9.10;;;;;;;-143.84;69.30;45243.31;5112949;28;20545;-79
2022/11/26 02:27:47;;;;;;;13.53;8.53;;;;;;;-143.84;69.80;45241.41;5113568;28;20878;-79
2022/11/26 02:30:18;;;;;;;13.57;8.97;;;;;;;-143.84;69.24;45235.69;5113089;28;20447;-78
2022/11/26 02:32:56;;;;;;;14.40;9.87;;;;;;;-143.84;69.53;45245.19;5113430;28;20551;-78
2022/11/26 02:35:31;;;;;;;14.70;8.97;;;;;;;-143.84;69.51;45256.63;5113294;28;20945;-78
2022/11/26 02:38:03;;;;;;;12.17;9.00;;;;;;;-143.84;69.40;45245.19;5112759;28;20466;-78
2022/11/26 02:40:30;;;;;;;11.93;8.87;;;;;;;-143.84;69.20;45268.06;5112901;28;20424;-78
2022/11/26 02:42:57;;;;;;;13.27;9.27;;;;;;;-143.84;69.27;45235.69;5113274;28;20419;-78
2022/11/26 02:45:30;;;;;;;9.00;8.03;;;;;;;-143.84;69.32;45243.31;5112902;28;20830;-78
2022/11/26 02:48:01;;;;;;;11.33;8.90;;;;;;;-143.84;69.55;45277.56;5113458;28;20439;-78
2022/11/26 02:50:35;;;;;;;12.30;9.17;;;;;;;-143.84;69.50;45256.63;5112686;28;20444;-78
2022/11/26 02:53:04;;;;;;;11.43;8.90;;;;;;;-143.84;69.70;45266.16;5112834;28;20439;-78
2022/11/26 02:55:35;;;;;;;15.27;9.60;;;;;;;-143.84;69.32;45264.25;5112680;28;20492;-78
2022/11/26 02:58:03;;;;;;;12.23;9.00;;;;;;;-143.84;69.94;45260.44;5112734;28;20427;-78
2022/11/26 03:00:34;;;;;;;10.70;8.60;;;;;;;-143.84;69.86;45260.44;5112608;28;20478;-78
2022/11/26 03:03:07;;;;;;;12.97;8.93;;;;;;;-143.84;69.63;45252.81;5112708;28;20435;-78
2022/11/26 03:05:38;;;;;;;10.40;8.53;;;;;;;-143.84;69.81;45252.81;5112523;28;20435;-78
2022/11/26 03:08:07;;;;;;;11.73;8.60;;;;;;;-143.84;69.97;45258.53;5112371;28;20431;-78
2022/11/26 03:10:34;;;;;;;21.93;9.47;;;;;;;-143.84;70.08;45252.81;5112447;28;20531;-78
2022/11/26 03:13:01;;;;;;;12.60;9.20;;;;;;;-143.84;70.12;45262.34;5112325;28;20431;-78
2022/11/26 03:15:28;;;;;;;12.27;8.43;;;;;;;-143.84;70.32;45254.72;5112272;28;20449;-78
2022/11/26 03:17:57;;;;;;;13.77;9.77;;;;;;;-143.84;70.32;45250.91;5112272;28;20931;-78
2022/11/26 03:20:24;;;;;;;11.37;9.27;;;;;;;-143.84;69.71;45260.44;5112037;28;21063;-78
2022/11/26 03:22:52;;;;;;;11.60;8.20;;;;;;;-143.84;70.20;45231.88;5112562;28;20430;-78
2022/11/26 03:25:19;;;;;;;15.07;9.57;;;;;;;-143.84;70.14;45268.06;5111609;28;20471;-78
2022/11/26 03:27:46;;;;;;;12.13;8.57;;;;;;;-143.84;70.27;45260.44;5111621;28;20438;-78
2022/11/26 03:30:14;;;;;;;13.93;9.17;;;;;;;-143.84;70.58;45245.19;5111540;28;20431;-78
2022/11/26 03:32:41;;;;;;;15.63;9.40;;;;;;;-143.84;70.88;45281.38;5111580;28;20492;-78
2022/11/26 03:35:10;;;;;;;13.10;8.33;;;;;;;-143.84;70.62;45249.00;5111712;28;20438;-78
2022/11/26 03:37:38;;;;;;;12.90;9.20;;;;;;;-143.84;70.10;45269.97;5111844;28;20434;-78
2022/11/26 03:40:06;;;;;;;11.23;9.03;;;;;;;-143.84;70.43;45269.97;5111461;28;20900;-78
2022/11/26 03:42:33;;;;;;;11.80;8.43;;;;;;;-143.84;70.23;45264.25;5112072;28;20846;-78
2022/11/26 03:45:01;;;;;;;11.93;8.13;;;;;;;-143.84;70.61;45275.66;5111062;28;20439;-78
2022/11/26 03:47:28;;;;;;;11.17;8.40;;;;;;;-143.84;70.60;45254.72;5111491;28;21204;-78
2022/11/26 03:49:55;;;;;;;11.97;9.20;;;;;;;-143.84;70.51;45229.97;5111485;28;20454;-78
2022/11/26 03:52:24;;;;;;;12.37;8.23;;;;;;;-143.84;70.68;45243.31;5111208;28;20443;-78
2022/11/26 03:54:51;;;;;;;8.87;7.50;;;;;;;-143.84;70.72;45254.72;5111362;28;20446;-78
2022/11/26 03:57:19;;;;;;;11.87;8.57;;;;;;;-143.84;70.88;45254.72;5111308;28;20512;-78
2022/11/26 03:59:46;;;;;;;11.63;8.83;;;;;;;-143.84;70.97;45218.53;5111155;28;20562;-78
2022/11/26 04:02:13;;;;;;;12.77;8.70;;;;;;;-143.84;70.79;45256.63;5111079;28;20435;-78
2022/11/26 04:04:40;;;;;;;14.37;9.43;;;;;;;-143.84;70.75;45254.72;5111385;28;20439;-78
2022/11/26 04:07:07;;;;;;;12.37;8.77;;;;;;;-143.84;70.63;45271.88;5111605;28;20492;-78
2022/11/26 04:09:36;;;;;;;13.50;9.60;;;;;;;-143.84;70.47;45243.31;5111227;28;20920;-78
2022/11/26 04:12:03;;;;;;;14.00;8.17;;;;;;;-143.84;70.70;45273.78;5111290;28;20439;-78
2022/11/26 04:14:30;;;;;;;14.17;8.87;;;;;;;-143.84;70.47;45268.06;5111480;28;20439;-78
2022/11/26 04:16:58;;;;;;;15.30;8.97;;;;;;;-143.84;70.73;45254.72;5110321;28;20442;-76
2022/11/26 04:19:25;;;;;;;13.50;9.27;;;;;;;-143.84;70.65;45250.91;5109240;28;20505;-76
2022/11/26 04:21:52;;;;;;;16.77;9.93;;;;;;;-143.84;70.37;45247.09;5109799;28;20427;-76
2022/11/26 04:24:19;;;;;;;11.10;8.93;;;;;;;-143.84;70.34;45264.25;5109732;28;20459;-76
2022/11/26 04:26:47;;;;;;;15.47;10.13;;;;;;;-143.84;69.98;45275.66;5109579;28;20553;-76
2022/11/26 04:29:14;;;;;;;10.53;8.40;;;;;;;-143.84;69.52;45258.53;5109199;28;20465;-76
2022/11/26 04:31:42;;;;;;;12.17;8.93;;;;;;;-143.84;69.64;45266.16;5108773;28;20447;-76
2022/11/26 04:34:09;;;;;;;12.37;9.13;;;;;;;-143.84;69.87;45241.41;5109372;28;20435;-76
2022/11/26 04:36:38;;;;;;;12.20;8.67;;;;;;;-143.84;69.53;45264.25;5109271;28;20442;-76
2022/11/26 04:39:05;;;;;;;17.97;9.57;;;;;;;-143.84;69.35;45245.19;5109259;28;20493;-76
2022/11/26 04:41:32;;;;;;;12.23;8.93;;;;;;;-143.84;69.72;45262.34;5108815;28;20932;-76
2022/11/26 04:44:01;;;;;;;11.07;8.33;;;;;;;-143.84;69.90;45231.88;5109631;28;20443;-76
2022/11/26 04:46:28;;;;;;;11.87;8.53;;;;;;;-143.84;69.60;45233.78;5109456;28;20604;-76
2022/11/26 04:48:55;;;;;;;12.93;9.20;;;;;;;-143.84;70.04;45262.34;5109305;28;20431;-76
2022/11/26 04:51:22;;;;;;;14.77;10.03;;;;;;;-143.84;70.13;45258.53;5105980;28;20447;-76
2022/11/26 04:53:49;;;;;;;13.03;9.60;;;;;;;-143.84;70.23;45256.63;5099721;28;20444;-76
2022/11/26 04:56:17;;;;;;;9.57;8.13;;;;;;;-143.84;70.25;45239.50;5088712;28;20977;-76
2022/11/26 04:58:44;;;;;;;14.23;10.37;;;;;;;-143.84;70.20;45308.03;5107099;28;20431;-76
2022/11/26 05:01:12;;;;;;;12.73;8.80;;;;;;;-143.84;70.23;45241.41;5113678;28;20431;-76
2022/11/26 05:03:39;;;;;;;13.83;8.60;;;;;;;-143.84;70.37;45254.72;5113257;28;20443;-76
2022/11/26 05:06:07;;;;;;;12.63;9.17;;;;;;;-143.84;70.71;45241.41;5113450;28;20438;-76
2022/11/26 05:08:34;;;;;;;11.20;8.70;;;;;;;-143.84;70.85;45252.81;5113392;28;20495;-76
2022/11/26 05:11:02;;;;;;;12.10;9.40;;;;;;;-143.84;71.00;45243.31;5114831;28;20442;-79
2022/11/26 05:13:29;;;;;;;12.63;9.70;;;;;;;-143.84;70.99;45277.56;5114661;28;20968;-78
2022/11/26 05:15:56;;;;;;;12.57;8.97;;;;;;;-143.84;71.03;45258.53;5114386;28;20808;-79
2022/11/26 05:18:25;;;;;;;12.10;8.90;;;;;;;-143.84;70.73;45262.34;5114610;28;20438;-79
2022/11/26 05:20:52;;;;;;;13.97;9.20;;;;;;;-143.84;71.09;45250.91;5113857;28;21074;-80
2022/11/26 05:23:20;;;;;;;13.13;9.27;;;;;;;-143.84;70.96;45247.09;5114339;27;21251;-79
2022/11/26 05:25:47;;;;;;;16.77;10.50;;;;;;;-143.84;72.66;45254.72;5113808;28;20512;-80
2022/11/26 05:28:14;;;;;;;12.47;9.60;;;;;;;-143.84;71.83;45266.16;5114582;28;20428;-80
2022/11/26 05:30:42;;;;;;;13.47;9.57;;;;;;;-143.84;71.45;45277.56;5110617;28;20800;-81
2022/11/26 05:33:09;;;;;;;16.70;9.03;;;;;;;-143.84;71.38;45250.91;5094378;28;20521;-80
2022/11/26 05:35:38;;;;;;;15.13;9.43;;;;;;;-143.84;71.27;45260.44;5094893;28;20478;-77
2022/11/26 05:38:06;;;;;;;17.30;9.87;;;;;;;-143.84;71.54;45256.63;5094046;28;20516;-77
2022/11/26 05:40:33;;;;;;;11.37;9.10;;;;;;;-143.84;71.68;45287.09;5092620;28;20834;-76
2022/11/26 05:43:00;;;;;;;15.70;10.60;;;;;;;-143.84;71.86;45256.63;5092968;28;20469;-76
2022/11/26 05:45:27;;;;;;;13.97;9.73;;;;;;;-143.84;72.91;45258.53;5093644;28;20806;-79
2022/11/26 05:47:54;;;;;;;12.63;9.30;;;;;;;-143.84;72.19;45264.25;5093715;28;20497;-77
2022/11/26 05:50:21;;;;;;;19.03;10.60;;;;;;;-143.84;71.62;45239.50;5092931;28;21094;-76
2022/11/26 05:52:50;;;;;;;16.30;9.40;;;;;;;-143.84;71.49;45243.31;5092590;28;20751;-76
2022/11/26 05:55:18;;;;;;;11.67;9.03;;;;;;;-143.84;71.27;45256.63;5092722;28;20512;-77
2022/11/26 05:57:45;;;;;;;14.27;9.70;;;;;;;-143.84;71.30;45252.81;5092136;28;20960;-76
2022/11/26 06:00:13;;;;;;;12.23;9.07;;;;;;;-143.84;71.27;45252.81;5091233;28;20467;-76
2022/11/26 06:02:41;;;;;;;13.40;9.87;;;;;;;-143.84;71.12;45247.09;5091353;28;20440;-76
2022/11/26 06:05:09;;;;;;;12.97;10.03;;;;;;;-143.84;70.66;45268.06;5091682;28;20505;-77
2022/11/26 06:07:37;;;;;;;15.20;10.13;;;;;;;-143.84;70.99;45269.97;5091448;28;20802;-77
2022/11/26 06:10:08;;;;;;;21.73;9.70;;;;;;;-143.84;70.91;45268.06;5092253;28;20783;-77
2022/11/26 06:12:36;;;;;;;18.13;9.97;;;;;;;-143.84;71.11;45247.09;5091936;28;20435;-77
2022/11/26 06:15:03;;;;;;;14.03;9.50;;;;;;;-143.84;71.27;45258.53;5092189;28;20440;-78
2022/11/26 06:17:31;;;;;;;11.47;9.20;;;;;;;-143.84;71.40;45271.88;5091591;28;20443;-77
2022/11/26 06:19:58;;;;;;;13.47;9.60;;;;;;;-143.84;71.68;45262.34;5091569;28;20513;-77
2022/11/26 06:22:25;;;;;;;18.50;10.10;;;;;;;-143.84;71.30;45268.06;5091500;28;20445;-78
2022/11/26 06:24:52;;;;;;;13.33;9.33;;;;;;;-143.84;71.12;45243.31;5091406;28;20483;-77
2022/11/26 06:27:21;;;;;;;14.23;9.57;;;;;;;-143.84;70.68;45241.41;5091194;28;20440;-77
2022/11/26 06:29:48;;;;;;;13.00;8.47;;;;;;;-143.84;70.21;45250.91;5091748;28;21014;-76
2022/11/26 06:32:16;;;;;;;14.30;9.57;;;;;;;-143.84;70.03;45224.25;5091989;28;20439;-77
2022/11/26 06:34:43;;;;;;;14.43;9.30;;;;;;;-143.84;69.52;45258.53;5091573;28;20432;-77
2022/11/26 06:37:10;;;;;;;18.10;9.80;;;;;;;-143.84;69.17;45229.97;5090903;28;20823;-77
2022/11/26 06:39:37;;;;;;;13.33;9.10;;;;;;;-143.84;68.15;45250.91;5091071;28;20482;-77
2022/11/26 06:42:04;;;;;;;10.50;8.90;;;;;;;-143.84;67.40;45228.06;5090935;28;20444;-77
2022/11/26 06:44:35;;;;;;;10.27;8.83;;;;;;;-143.84;66.84;45239.50;5090941;28;20478;-77
2022/11/26 06:47:02;;;;;;;10.07;8.13;;;;;;;-143.84;66.35;45249.00;5092690;28;20449;-77
2022/11/26 06:49:29;;;;;;;11.07;8.97;;;;;;;-143.84;65.83;45243.31;5092266;28;20429;-77
2022/11/26 06:51:57;;;;;;;13.13;9.00;;;;;;;-143.84;65.83;45220.44;5092182;28;20436;-77
2022/11/26 06:54:24;;;;;;;12.33;8.63;;;;;;;-143.84;64.79;45231.88;5092138;28;20432;-76
2022/11/26 06:56:51;;;;;;;12.30;8.40;;;;;;;-143.84;64.88;45245.19;5091622;28;20902;-76
2022/11/26 06:59:18;;;;;;;13.17;9.27;;;;;;;-143.84;63.44;45250.91;5091672;28;20506;-74
2022/11/26 07:01:47;;;;;;;11.50;8.27;;;;;;;-143.84;62.97;45231.88;5091361;28;20968;-75
2022/11/26 07:04:15;;;;;;;12.33;9.80;;;;;;;-143.84;62.04;45237.59;5091358;28;20499;-74
2022/11/26 07:06:42;;;;;;;13.40;8.90;;;;;;;-143.84;61.33;45231.88;5091085;28;20438;-74
2022/11/26 07:09:10;;;;;;;10.83;7.60;;;;;;;-143.84;60.89;45239.50;5091468;28;20996;-75
2022/11/26 07:11:39;;;;;;;13.50;10.33;;;;;;;-143.84;61.05;45239.50;5090857;28;20445;-75
2022/11/26 07:14:06;;;;;;;12.33;9.30;;;;;;;-143.84;59.67;45210.94;5091206;28;20442;-75
2022/11/26 07:16:34;;;;;;;9.57;8.00;;;;;;;-143.84;58.13;45216.63;5091250;28;20451;-75
2022/11/26 07:19:02;;;;;;;11.73;8.50;;;;;;;-143.84;57.42;45224.25;5091415;28;20940;-74
2022/11/26 07:21:30;;;;;;;13.27;9.07;;;;;;;-143.84;57.44;45197.59;5090005;28;20558;-74
2022/11/26 07:23:58;;;;;;;12.00;8.70;;;;;;;-143.84;56.43;45218.53;5090869;28;20450;-75
2022/11/26 07:26:25;;;;;;;11.07;9.00;;;;;;;-143.84;55.74;45228.06;5090706;28;21078;-75
2022/11/26 07:28:53;;;;;;;14.43;9.70;;;;;;;-143.84;55.23;45220.44;5091038;28;20503;-75
2022/11/26 07:31:22;;;;;;;13.33;9.23;;;;;;;-143.84;53.92;45226.16;5091347;28;20448;-75
2022/11/26 07:33:50;;;;;;;11.37;8.80;;;;;;;-143.84;53.58;45226.16;5090980;28;20444;-75
2022/11/26 07:36:20;;;;;;;14.07;9.13;;;;;;;-143.84;52.91;45207.13;5091126;28;20501;-75
2022/11/26 07:38:48;;;;;;;10.10;8.40;;;;;;;-143.84;51.74;45249.00;5091126;28;20436;-75
2022/11/26 07:41:17;;;;;;;11.47;8.60;;;;;;;-143.84;51.30;45182.38;5090994;28;20486;-75
2022/11/26 07:43:45;;;;;;;13.03;8.80;;;;;;;-143.84;51.11;45201.41;5091149;28;20443;-76
2022/11/26 07:46:14;;;;;;;11.63;8.00;;;;;;;-143.84;50.97;45224.25;5091219;28;20444;-75
2022/11/26 07:48:41;;;;;;;14.73;9.73;;;;;;;-143.84;50.24;45205.22;5090829;28;20838;-76
2022/11/26 07:51:16;;;;;;;10.90;8.43;;;;;;;-143.84;49.96;45207.13;5090307;28;20441;-76
2022/11/26 07:53:46;;;;;;;11.93;9.30;;;;;;;-143.84;49.19;45220.44;5090460;28;20435;-76
2022/11/26 07:56:13;;;;;;;11.07;9.47;;;;;;;-143.84;48.78;45186.16;5089957;28;20444;-75
2022/11/26 07:58:41;;;;;;;12.03;8.70;;;;;;;-143.84;48.02;45222.34;5090503;28;20467;-75
2022/11/26 08:01:09;;;;;;;14.93;9.30;;;;;;;-143.84;48.21;45214.72;5090128;28;20827;-75
2022/11/26 08:03:40;;;;;;;11.90;8.93;;;;;;;-143.84;47.58;45228.06;5090148;28;20910;-75
2022/11/26 08:06:10;;;;;;;10.83;9.10;;;;;;;-143.84;47.05;45191.88;5094654;28;20436;-76
2022/11/26 08:08:38;;;;;;;9.03;8.13;;;;;;;-143.84;47.41;45209.03;5109897;28;20453;-74
2022/11/26 08:11:14;;;;;;;12.27;9.43;;;;;;;-143.84;46.49;45214.72;5109898;28;20456;-75
2022/11/26 08:13:42;;;;;;;13.57;9.20;;;;;;;-143.84;46.21;45170.94;5110100;28;20479;-74
2022/11/26 08:16:09;;;;;;;13.73;8.57;;;;;;;-143.84;45.93;45205.22;5109750;28;20445;-77
2022/11/26 08:18:37;;;;;;;11.43;8.50;;;;;;;-143.84;45.68;45186.16;5109772;28;20427;-76
2022/11/26 08:21:05;;;;;;;12.57;8.77;;;;;;;-143.84;45.76;45170.94;5109476;28;20475;-76
2022/11/26 08:23:33;;;;;;;11.67;8.10;;;;;;;-143.84;46.11;45174.75;5110370;28;20442;-79
2022/11/26 08:26:07;;;;;;;12.93;8.70;;;;;;;-143.84;45.09;45180.47;5109056;28;20495;-73
2022/11/26 08:28:35;;;;;;;12.97;8.43;;;;;;;-143.84;44.27;45186.16;5109501;28;20566;-74
2022/11/26 08:31:03;;;;;;;14.67;9.03;;;;;;;-143.84;44.49;45186.16;5110408;28;20519;-75
2022/11/26 08:33:30;;;;;;;16.40;9.20;;;;;;;-143.84;44.28;45161.41;5114245;28;20438;-75
2022/11/26 08:35:57;;;;;;;13.53;8.67;;;;;;;-143.84;43.72;45188.06;5114222;28;20445;-77
2022/11/26 08:38:26;;;;;;;15.20;9.00;;;;;;;-143.84;43.51;45170.94;5113579;28;20551;-72
2022/11/26 08:40:53;;;;;;;14.27;9.90;;;;;;;-143.84;43.88;45167.13;5113096;28;20512;-72
2022/11/26 08:43:23;;;;;;;11.87;9.00;;;;;;;-143.84;43.30;45153.81;5113963;28;20433;-72
2022/11/26 08:45:54;;;;;;;13.40;9.67;;;;;;;-143.84;43.57;45170.94;5113572;28;20446;-73
2022/11/26 08:48:22;;;;;;;12.27;8.80;;;;;;;-143.84;43.39;45167.13;5113758;28;20469;-74
2022/11/26 08:50:50;;;;;;;12.70;8.60;;;;;;;-143.84;42.61;45207.13;5113159;28;20574;-76
2022/11/26 08:53:17;;;;;;;12.30;9.17;;;;;;;-143.84;42.54;45146.19;5113298;28;20448;-75
2022/11/26 08:55:44;;;;;;;14.40;8.90;;;;;;;-143.84;42.68;45167.13;5112522;28;20443;-76
2022/11/26 08:58:11;;;;;;;15.03;10.60;;;;;;;-143.84;42.21;45172.84;5112995;28;20434;-75
2022/11/26 09:00:40;;;;;;;16.60;12.60;;;;;;;-143.84;42.00;45189.97;5113353;28;20482;-75
2022/11/26 09:03:08;;;;;;;10.77;8.57;;;;;;;-143.84;41.62;45151.91;5113101;28;20532;-75
2022/11/26 09:05:35;;;;;;;12.07;8.40;;;;;;;-143.84;42.82;45151.91;5112005;28;20530;-75
2022/11/26 09:08:02;;;;;;;10.00;8.40;;;;;;;-143.84;41.91;45167.13;5112326;28;20843;-75
2022/11/26 09:10:29;;;;;;;10.37;8.80;;;;;;;-143.84;41.28;45148.09;5111308;28;21480;-75
2022/11/26 09:12:57;;;;;;;14.57;9.47;;;;;;;-143.84;40.70;45165.22;5111739;28;20427;-75
2022/11/26 09:15:24;;;;;;;10.73;8.47;;;;;;;-143.84;40.28;45155.69;5111517;28;21061;-74
2022/11/26 09:17:52;;;;;;;10.80;8.40;;;;;;;-143.84;40.47;45189.97;5111583;28;21327;-74
2022/11/26 09:20:19;;;;;;;11.10;8.30;;;;;;;-143.84;40.15;45189.97;5112531;28;20447;-74
2022/11/26 09:22:47;;;;;;;16.47;11.80;;;;;;;-143.84;40.45;45144.28;5112480;28;20523;-74
2022/11/26 09:25:14;;;;;;;16.93;10.03;;;;;;;-143.84;40.39;45201.41;5111845;28;20476;-74
2022/11/26 09:27:41;;;;;;;13.40;8.70;;;;;;;-143.84;40.65;45163.31;5105776;28;20444;-74
2022/11/26 09:30:09;;;;;;;12.77;9.20;;;;;;;-143.84;39.78;45151.91;5109101;28;20875;-74
2022/11/26 09:32:37;;;;;;;12.07;9.00;;;;;;;-143.84;39.42;45165.22;5111997;28;20442;-74
2022/11/26 09:35:07;;;;;;;11.10;7.50;;;;;;;-143.84;39.23;45155.69;5112400;28;20937;-74
2022/11/26 09:37:34;;;;;;;12.33;9.30;;;;;;;-143.84;39.94;45155.69;5112084;28;20428;-74
2022/11/26 09:40:01;;;;;;;11.20;7.87;;;;;;;-143.84;40.02;45155.69;5111445;28;20962;-74
2022/11/26 09:42:47;;;;;;;11.43;8.10;;;;;;;-143.84;38.83;45125.22;5111495;28;20475;-75
2022/11/26 09:45:31;;;;;;;10.93;8.63;;;;;;;-143.84;39.27;45163.31;5111797;28;20441;-74
2022/11/26 09:47:58;;;;;;;10.43;7.83;;;;;;;-143.84;39.41;45150.00;5106155;28;20461;-74
2022/11/26 09:50:32;;;;;;;12.07;7.83;;;;;;;-143.84;38.88;45155.69;5110858;28;20448;-75
2022/11/26 09:53:03;;;;;;;9.60;7.80;;;;;;;-143.84;38.74;45150.00;5110616;28;20453;-74
2022/11/26 09:55:32;;;;;;;9.20;7.27;;;;;;;-143.84;38.56;45159.50;5110924;28;20507;-74
2022/11/26 09:58:11;;;;;;;9.67;6.20;;;;;;;-143.84;38.27;45150.00;5110783;28;20495;-74
2022/11/26 10:00:41;;;;;;;10.50;6.50;;;;;;;-143.84;38.21;45146.19;5110695;28;20473;-74
2022/11/26 10:03:14;;;;;;;8.07;6.57;;;;;;;-143.84;37.54;45132.84;5110595;28;20447;-74
2022/11/26 10:05:50;;;;;;;9.70;7.80;;;;;;;-143.84;37.80;45163.31;5110649;28;20451;-75
2022/11/26 10:08:47;;;;;;;11.07;7.50;;;;;;;-143.84;38.21;45130.94;5110926;28;20858;-74
2022/11/26 10:11:25;;;;;;;10.50;8.07;;;;;;;-143.84;38.09;45153.81;5107492;28;20517;-75
2022/11/26 10:14:08;;;;;;;11.43;6.70;;;;;;;-143.84;38.00;45155.69;5101574;28;20956;-74
2022/11/26 10:16:43;;;;;;;9.83;7.30;;;;;;;-143.84;37.67;45159.50;5105400;28;20853;-73
2022/11/26 10:19:18;;;;;;;11.57;7.13;;;;;;;-143.84;37.67;45151.91;5113531;28;20433;-74
2022/11/26 10:21:50;;;;;;;7.27;6.20;;;;;;;-143.84;36.89;45155.69;5112862;28;20484;-74
2022/11/26 10:24:26;;;;;;;8.00;6.80;;;;;;;-143.84;37.47;45144.28;5113224;28;20456;-73
2022/11/26 10:26:55;;;;;;;11.17;6.23;;;;;;;-143.84;37.00;45150.00;5112740;28;20910;-74
2022/11/26 10:29:24;;;;;;;8.13;6.80;;;;;;;-143.84;37.55;45170.94;5112831;28;20428;-73
2022/11/26 10:31:56;;;;;;;7.03;5.90;;;;;;;-143.84;37.31;45159.50;5112507;28;20439;-74
2022/11/26 10:34:30;;;;;;;7.50;6.20;;;;;;;-143.84;36.97;45134.75;5112434;28;20786;-74
2022/11/26 10:36:59;;;;;;;7.67;6.30;;;;;;;-143.84;36.66;45144.28;5112002;28;20448;-74
2022/11/26 10:39:28;;;;;;;7.63;6.43;;;;;;;-143.84;37.08;45144.28;5111724;28;20962;-74
2022/11/26 10:41:55;;;;;;;9.20;7.17;;;;;;;-143.84;37.50;45119.53;5111170;28;20470;-74
2022/11/26 10:44:34;;;;;;;7.53;6.77;;;;;;;-143.84;37.67;45155.69;5111735;28;20440;-74
2022/11/26 10:47:20;;;;;;;7.00;5.97;;;;;;;-143.84;36.56;45151.91;5110921;28;20437;-73
2022/11/26 10:49:48;;;;;;;8.80;6.67;;;;;;;-143.84;37.30;45165.22;5111370;28;20449;-73
2022/11/26 10:52:19;;;;;;;7.57;6.77;;;;;;;-143.84;37.10;45172.84;5111329;28;20440;-73
2022/11/26 10:54:46;;;;;;;10.27;7.23;;;;;;;-143.84;36.86;45136.66;5109469;28;20508;-73
2022/11/26 10:57:17;;;;;;;7.23;6.37;;;;;;;-143.84;37.95;45151.91;5110921;28;20441;-74
2022/11/26 10:59:50;;;;;;;7.33;6.63;;;;;;;-143.84;38.10;45170.94;5112645;28;20427;-73
2022/11/26 11:02:39;;;;;;;12.23;7.50;;;;;;;-143.84;37.27;45125.22;5113302;28;20489;-74
2022/11/26 11:05:09;;;;;;;7.00;6.10;;;;;;;-143.84;37.36;45144.28;5106319;28;20647;-73
2022/11/26 11:07:42;;;;;;;9.93;6.53;;;;;;;-143.84;37.49;45142.38;5109088;28;20442;-73
2022/11/26 11:10:16;;;;;;;8.87;5.03;;;;;;;-143.84;37.16;45146.19;5102951;28;20532;-73
2022/11/26 11:12:48;;;;;;;7.40;6.07;;;;;;;-143.84;36.79;45142.38;5110582;28;20430;-73
2022/11/26 11:15:25;;;;;;;6.93;6.23;;;;;;;-143.84;38.15;45157.59;5110709;28;20798;-73
2022/11/26 11:17:58;;;;;;;8.43;6.30;;;;;;;-143.84;37.81;45148.09;5090511;28;20433;-73
2022/11/26 11:20:31;;;;;;;8.57;5.40;;;;;;;-143.84;36.81;45150.00;5090686;28;20436;-74